sensor_id;sensor_type;location;lat;lon;timestamp;temperature;humidity
11704;DHT22;5908;51.354;7.458;2023-04-28T00:00:19;10.90;84.90
11704;DHT22;5908;51.354;7.458;2023-04-28T00:02:45;11.00;85.10
11704;DHT22;5908;51.354;7.458;2023-04-28T00:05:13;11.00;85.30
11704;DHT22;5908;51.354;7.458;2023-04-28T00:07:41;11.00;85.80
11704;DHT22;5908;51.354;7.458;2023-04-28T00:10:08;11.00;86.20
11704;DHT22;5908;51.354;7.458;2023-04-28T00:12:35;11.00;86.50
11704;DHT22;5908;51.354;7.458;2023-04-28T00:15:02;11.00;87.70
11704;DHT22;5908;51.354;7.458;2023-04-28T00:17:29;11.00;88.80
11704;DHT22;5908;51.354;7.458;2023-04-28T00:19:56;11.10;89.40
11704;DHT22;5908;51.354;7.458;2023-04-28T00:22:23;11.10;88.60
11704;DHT22;5908;51.354;7.458;2023-04-28T00:24:51;11.00;91.40
11704;DHT22;5908;51.354;7.458;2023-04-28T00:27:18;10.90;92.30
11704;DHT22;5908;51.354;7.458;2023-04-28T00:29:45;10.80;92.10
11704;DHT22;5908;51.354;7.458;2023-04-28T00:32:11;10.80;91.30
11704;DHT22;5908;51.354;7.458;2023-04-28T00:34:38;10.80;91.70
11704;DHT22;5908;51.354;7.458;2023-04-28T00:37:05;10.70;93.70
11704;DHT22;5908;51.354;7.458;2023-04-28T00:39:32;10.60;96.80
11704;DHT22;5908;51.354;7.458;2023-04-28T00:42:00;10.50;99.90
11704;DHT22;5908;51.354;7.458;2023-04-28T00:44:28;10.30;99.90
11704;DHT22;5908;51.354;7.458;2023-04-28T00:46:55;10.20;99.90
11704;DHT22;5908;51.354;7.458;2023-04-28T00:49:22;10.20;99.90
11704;DHT22;5908;51.354;7.458;2023-04-28T00:51:49;10.30;99.90
11704;DHT22;5908;51.354;7.458;2023-04-28T00:54:16;10.30;99.90
11704;DHT22;5908;51.354;7.458;2023-04-28T00:56:43;10.40;99.90
11704;DHT22;5908;51.354;7.458;2023-04-28T00:59:11;10.40;99.90
11704;DHT22;5908;51.354;7.458;2023-04-28T01:01:38;10.50;99.90
11704;DHT22;5908;51.354;7.458;2023-04-28T01:04:04;10.60;99.90
11704;DHT22;5908;51.354;7.458;2023-04-28T01:06:32;10.50;99.90
11704;DHT22;5908;51.354;7.458;2023-04-28T01:08:59;10.60;99.90
11704;DHT22;5908;51.354;7.458;2023-04-28T01:11:26;10.60;99.90
11704;DHT22;5908;51.354;7.458;2023-04-28T01:13:53;10.70;99.90
11704;DHT22;5908;51.354;7.458;2023-04-28T01:16:23;10.90;99.90
11704;DHT22;5908;51.354;7.458;2023-04-28T01:18:51;10.90;99.90
11704;DHT22;5908;51.354;7.458;2023-04-28T01:21:25;11.00;99.90
11704;DHT22;5908;51.354;7.458;2023-04-28T01:23:54;11.00;99.90
11704;DHT22;5908;51.354;7.458;2023-04-28T01:26:21;10.90;99.90
11704;DHT22;5908;51.354;7.458;2023-04-28T01:28:48;10.90;99.90
11704;DHT22;5908;51.354;7.458;2023-04-28T01:31:15;10.90;99.90
11704;DHT22;5908;51.354;7.458;2023-04-28T01:33:41;10.90;99.90
11704;DHT22;5908;51.354;7.458;2023-04-28T01:36:08;10.90;99.90
11704;DHT22;5908;51.354;7.458;2023-04-28T01:38:35;10.90;99.90
11704;DHT22;5908;51.354;7.458;2023-04-28T01:41:03;10.90;99.90
11704;DHT22;5908;51.354;7.458;2023-04-28T01:43:30;10.90;99.90
11704;DHT22;5908;51.354;7.458;2023-04-28T01:45:56;10.90;99.90
11704;DHT22;5908;51.354;7.458;2023-04-28T01:48:23;11.00;99.90
11704;DHT22;5908;51.354;7.458;2023-04-28T01:50:50;11.00;99.90
11704;DHT22;5908;51.354;7.458;2023-04-28T01:53:17;11.00;99.90
11704;DHT22;5908;51.354;7.458;2023-04-28T01:55:45;11.00;99.90
11704;DHT22;5908;51.354;7.458;2023-04-28T01:58:13;10.90;99.90
11704;DHT22;5908;51.354;7.458;2023-04-28T02:00:40;10.80;99.90
11704;DHT22;5908;51.354;7.458;2023-04-28T02:03:07;10.50;99.90
11704;DHT22;5908;51.354;7.458;2023-04-28T02:05:33;10.50;99.90
11704;DHT22;5908;51.354;7.458;2023-04-28T02:08:00;10.50;99.90
11704;DHT22;5908;51.354;7.458;2023-04-28T02:10:27;10.30;99.90
11704;DHT22;5908;51.354;7.458;2023-04-28T02:12:54;10.20;99.90
11704;DHT22;5908;51.354;7.458;2023-04-28T02:15:22;10.20;99.90
11704;DHT22;5908;51.354;7.458;2023-04-28T02:17:49;10.30;99.90
11704;DHT22;5908;51.354;7.458;2023-04-28T02:20:15;10.30;99.90
11704;DHT22;5908;51.354;7.458;2023-04-28T02:22:42;10.40;99.90
11704;DHT22;5908;51.354;7.458;2023-04-28T02:25:09;10.40;99.90
11704;DHT22;5908;51.354;7.458;2023-04-28T02:27:36;10.50;99.90
11704;DHT22;5908;51.354;7.458;2023-04-28T02:30:04;10.40;99.90
11704;DHT22;5908;51.354;7.458;2023-04-28T02:32:32;10.40;99.90
11704;DHT22;5908;51.354;7.458;2023-04-28T02:34:59;10.40;99.90
11704;DHT22;5908;51.354;7.458;2023-04-28T02:37:26;10.40;99.90
11704;DHT22;5908;51.354;7.458;2023-04-28T02:39:52;10.20;99.90
11704;DHT22;5908;51.354;7.458;2023-04-28T02:42:19;10.20;99.90
11704;DHT22;5908;51.354;7.458;2023-04-28T02:44:46;10.10;99.90
11704;DHT22;5908;51.354;7.458;2023-04-28T02:47:12;10.10;99.90
11704;DHT22;5908;51.354;7.458;2023-04-28T02:49:40;10.00;99.90
11704;DHT22;5908;51.354;7.458;2023-04-28T02:52:07;9.90;99.90
11704;DHT22;5908;51.354;7.458;2023-04-28T02:54:34;9.90;99.90
11704;DHT22;5908;51.354;7.458;2023-04-28T02:57:01;9.90;99.90
11704;DHT22;5908;51.354;7.458;2023-04-28T02:59:29;9.90;99.90
11704;DHT22;5908;51.354;7.458;2023-04-28T03:01:56;10.00;99.90
11704;DHT22;5908;51.354;7.458;2023-04-28T03:04:23;10.00;99.90
11704;DHT22;5908;51.354;7.458;2023-04-28T03:06:51;10.10;99.90
11704;DHT22;5908;51.354;7.458;2023-04-28T03:09:18;10.10;99.90
11704;DHT22;5908;51.354;7.458;2023-04-28T03:11:45;10.10;99.90
11704;DHT22;5908;51.354;7.458;2023-04-28T03:14:12;10.20;99.90
11704;DHT22;5908;51.354;7.458;2023-04-28T03:16:38;10.20;99.90
11704;DHT22;5908;51.354;7.458;2023-04-28T03:19:05;10.20;99.90
11704;DHT22;5908;51.354;7.458;2023-04-28T03:21:32;10.20;99.90
11704;DHT22;5908;51.354;7.458;2023-04-28T03:24:00;10.20;99.90
11704;DHT22;5908;51.354;7.458;2023-04-28T03:26:27;10.20;99.90
11704;DHT22;5908;51.354;7.458;2023-04-28T03:28:53;10.20;99.90
11704;DHT22;5908;51.354;7.458;2023-04-28T03:31:21;10.30;99.90
11704;DHT22;5908;51.354;7.458;2023-04-28T03:33:48;10.30;99.90
11704;DHT22;5908;51.354;7.458;2023-04-28T03:36:15;10.40;99.90
11704;DHT22;5908;51.354;7.458;2023-04-28T03:38:42;10.40;99.90
11704;DHT22;5908;51.354;7.458;2023-04-28T03:41:10;10.40;99.90
11704;DHT22;5908;51.354;7.458;2023-04-28T03:43:37;10.40;99.90
11704;DHT22;5908;51.354;7.458;2023-04-28T03:46:03;10.40;99.90
11704;DHT22;5908;51.354;7.458;2023-04-28T03:48:30;10.50;99.90
11704;DHT22;5908;51.354;7.458;2023-04-28T03:50:57;10.50;99.90
11704;DHT22;5908;51.354;7.458;2023-04-28T03:53:23;10.50;99.90
11704;DHT22;5908;51.354;7.458;2023-04-28T03:55:50;10.50;99.90
11704;DHT22;5908;51.354;7.458;2023-04-28T03:58:18;10.50;99.90
11704;DHT22;5908;51.354;7.458;2023-04-28T04:00:45;10.50;99.90
11704;DHT22;5908;51.354;7.458;2023-04-28T04:03:11;10.50;99.90
11704;DHT22;5908;51.354;7.458;2023-04-28T04:05:39;10.60;99.90
11704;DHT22;5908;51.354;7.458;2023-04-28T04:08:06;10.60;99.90
11704;DHT22;5908;51.354;7.458;2023-04-28T04:10:33;10.70;99.90
11704;DHT22;5908;51.354;7.458;2023-04-28T04:13:00;10.70;99.90
11704;DHT22;5908;51.354;7.458;2023-04-28T04:15:28;10.70;99.90
11704;DHT22;5908;51.354;7.458;2023-04-28T04:17:54;10.70;99.90
11704;DHT22;5908;51.354;7.458;2023-04-28T04:20:21;10.70;99.90
11704;DHT22;5908;51.354;7.458;2023-04-28T04:22:48;10.80;99.90
11704;DHT22;5908;51.354;7.458;2023-04-28T04:25:15;10.90;99.90
11704;DHT22;5908;51.354;7.458;2023-04-28T04:27:41;10.90;99.90
11704;DHT22;5908;51.354;7.458;2023-04-28T04:30:08;10.90;99.90
11704;DHT22;5908;51.354;7.458;2023-04-28T04:32:37;10.90;99.90
11704;DHT22;5908;51.354;7.458;2023-04-28T04:35:04;11.00;99.90
11704;DHT22;5908;51.354;7.458;2023-04-28T04:37:32;10.90;99.90
11704;DHT22;5908;51.354;7.458;2023-04-28T04:39:59;11.00;99.90
11704;DHT22;5908;51.354;7.458;2023-04-28T04:42:25;10.90;99.90
11704;DHT22;5908;51.354;7.458;2023-04-28T04:44:52;11.00;99.90
11704;DHT22;5908;51.354;7.458;2023-04-28T04:47:19;11.00;99.90
11704;DHT22;5908;51.354;7.458;2023-04-28T04:49:47;11.00;99.90
11704;DHT22;5908;51.354;7.458;2023-04-28T04:52:14;11.10;99.90
11704;DHT22;5908;51.354;7.458;2023-04-28T04:54:41;11.00;99.90
11704;DHT22;5908;51.354;7.458;2023-04-28T04:57:08;11.20;99.90
11704;DHT22;5908;51.354;7.458;2023-04-28T04:59:35;11.10;99.90
11704;DHT22;5908;51.354;7.458;2023-04-28T05:02:02;11.10;99.90
11704;DHT22;5908;51.354;7.458;2023-04-28T05:04:28;11.20;99.90
11704;DHT22;5908;51.354;7.458;2023-04-28T05:06:56;11.10;99.90
11704;DHT22;5908;51.354;7.458;2023-04-28T05:09:23;11.20;99.90
11704;DHT22;5908;51.354;7.458;2023-04-28T05:11:50;11.20;99.90
11704;DHT22;5908;51.354;7.458;2023-04-28T05:14:16;11.30;99.90
11704;DHT22;5908;51.354;7.458;2023-04-28T05:16:43;11.30;99.90
11704;DHT22;5908;51.354;7.458;2023-04-28T05:19:10;11.30;99.90
11704;DHT22;5908;51.354;7.458;2023-04-28T05:21:37;11.30;99.90
11704;DHT22;5908;51.354;7.458;2023-04-28T05:24:05;11.30;99.90
11704;DHT22;5908;51.354;7.458;2023-04-28T05:26:32;11.40;99.90
11704;DHT22;5908;51.354;7.458;2023-04-28T05:28:59;11.50;99.90
11704;DHT22;5908;51.354;7.458;2023-04-28T05:31:25;11.50;99.90
11704;DHT22;5908;51.354;7.458;2023-04-28T05:33:52;11.50;99.90
11704;DHT22;5908;51.354;7.458;2023-04-28T05:36:19;11.50;99.90
11704;DHT22;5908;51.354;7.458;2023-04-28T05:38:45;11.50;99.90
11704;DHT22;5908;51.354;7.458;2023-04-28T05:41:13;11.50;99.90
11704;DHT22;5908;51.354;7.458;2023-04-28T05:43:40;11.40;99.90
11704;DHT22;5908;51.354;7.458;2023-04-28T05:46:07;11.40;99.90
11704;DHT22;5908;51.354;7.458;2023-04-28T05:48:33;11.40;99.90
11704;DHT22;5908;51.354;7.458;2023-04-28T05:51:00;11.50;99.90
11704;DHT22;5908;51.354;7.458;2023-04-28T05:53:27;11.50;99.90
11704;DHT22;5908;51.354;7.458;2023-04-28T05:55:53;11.60;99.90
11704;DHT22;5908;51.354;7.458;2023-04-28T05:58:21;11.60;99.90
11704;DHT22;5908;51.354;7.458;2023-04-28T06:00:48;11.60;99.90
11704;DHT22;5908;51.354;7.458;2023-04-28T06:03:15;11.60;99.90
11704;DHT22;5908;51.354;7.458;2023-04-28T06:05:43;11.60;99.90
11704;DHT22;5908;51.354;7.458;2023-04-28T06:08:10;11.70;99.90
11704;DHT22;5908;51.354;7.458;2023-04-28T06:10:37;11.80;99.90
11704;DHT22;5908;51.354;7.458;2023-04-28T06:13:03;11.90;99.90
11704;DHT22;5908;51.354;7.458;2023-04-28T06:15:32;12.00;99.90
11704;DHT22;5908;51.354;7.458;2023-04-28T06:17:59;12.00;99.90
11704;DHT22;5908;51.354;7.458;2023-04-28T06:20:26;12.00;99.90
11704;DHT22;5908;51.354;7.458;2023-04-28T06:22:53;12.10;99.90
11704;DHT22;5908;51.354;7.458;2023-04-28T06:25:20;12.30;99.90
11704;DHT22;5908;51.354;7.458;2023-04-28T06:27:46;12.50;99.90
11704;DHT22;5908;51.354;7.458;2023-04-28T06:30:17;12.70;99.90
11704;DHT22;5908;51.354;7.458;2023-04-28T06:32:46;12.80;99.90
11704;DHT22;5908;51.354;7.458;2023-04-28T06:35:13;13.00;99.90
11704;DHT22;5908;51.354;7.458;2023-04-28T06:37:40;13.10;99.90
11704;DHT22;5908;51.354;7.458;2023-04-28T06:40:08;13.30;99.90
11704;DHT22;5908;51.354;7.458;2023-04-28T06:42:35;13.60;99.90
11704;DHT22;5908;51.354;7.458;2023-04-28T06:45:02;13.80;99.90
11704;DHT22;5908;51.354;7.458;2023-04-28T06:47:29;14.00;99.90
11704;DHT22;5908;51.354;7.458;2023-04-28T06:49:57;13.90;99.90
11704;DHT22;5908;51.354;7.458;2023-04-28T06:52:26;14.00;99.90
11704;DHT22;5908;51.354;7.458;2023-04-28T06:54:54;14.00;99.90
11704;DHT22;5908;51.354;7.458;2023-04-28T06:57:21;14.20;99.90
11704;DHT22;5908;51.354;7.458;2023-04-28T06:59:47;14.40;99.90
11704;DHT22;5908;51.354;7.458;2023-04-28T07:02:14;14.50;99.90
11704;DHT22;5908;51.354;7.458;2023-04-28T07:04:41;14.90;99.90
11704;DHT22;5908;51.354;7.458;2023-04-28T07:07:10;15.30;99.90
11704;DHT22;5908;51.354;7.458;2023-04-28T07:09:37;15.70;99.90
11704;DHT22;5908;51.354;7.458;2023-04-28T07:12:05;15.80;99.90
11704;DHT22;5908;51.354;7.458;2023-04-28T07:14:31;15.90;99.90
11704;DHT22;5908;51.354;7.458;2023-04-28T07:16:58;15.80;99.90
11704;DHT22;5908;51.354;7.458;2023-04-28T07:19:25;15.70;99.90
11704;DHT22;5908;51.354;7.458;2023-04-28T07:21:52;15.50;99.90
11704;DHT22;5908;51.354;7.458;2023-04-28T07:24:20;15.50;99.90
11704;DHT22;5908;51.354;7.458;2023-04-28T07:26:47;15.50;99.90
11704;DHT22;5908;51.354;7.458;2023-04-28T07:29:14;15.50;99.90
11704;DHT22;5908;51.354;7.458;2023-04-28T07:31:41;15.60;99.90
11704;DHT22;5908;51.354;7.458;2023-04-28T07:34:08;15.80;99.90
11704;DHT22;5908;51.354;7.458;2023-04-28T07:36:34;16.10;99.90
11704;DHT22;5908;51.354;7.458;2023-04-28T07:39:01;16.30;99.90
11704;DHT22;5908;51.354;7.458;2023-04-28T07:41:29;16.30;99.90
11704;DHT22;5908;51.354;7.458;2023-04-28T07:43:56;16.30;99.90
11704;DHT22;5908;51.354;7.458;2023-04-28T07:46:23;16.20;99.90
11704;DHT22;5908;51.354;7.458;2023-04-28T07:48:50;16.30;99.90
11704;DHT22;5908;51.354;7.458;2023-04-28T07:51:16;16.40;99.90
11704;DHT22;5908;51.354;7.458;2023-04-28T07:53:43;16.40;99.90
11704;DHT22;5908;51.354;7.458;2023-04-28T07:56:10;16.50;99.90
11704;DHT22;5908;51.354;7.458;2023-04-28T07:58:39;16.60;99.90
11704;DHT22;5908;51.354;7.458;2023-04-28T08:01:05;16.50;99.90
11704;DHT22;5908;51.354;7.458;2023-04-28T08:03:32;16.70;99.90
11704;DHT22;5908;51.354;7.458;2023-04-28T08:06:00;17.20;99.90
11704;DHT22;5908;51.354;7.458;2023-04-28T08:08:26;17.60;99.70
11704;DHT22;5908;51.354;7.458;2023-04-28T08:10:53;17.70;99.20
11704;DHT22;5908;51.354;7.458;2023-04-28T08:13:20;17.50;99.80
11704;DHT22;5908;51.354;7.458;2023-04-28T08:15:48;17.40;99.70
11704;DHT22;5908;51.354;7.458;2023-04-28T08:18:15;17.30;99.90
11704;DHT22;5908;51.354;7.458;2023-04-28T08:20:42;17.50;99.90
11704;DHT22;5908;51.354;7.458;2023-04-28T08:23:08;17.90;99.90
11704;DHT22;5908;51.354;7.458;2023-04-28T08:25:36;18.40;99.90
11704;DHT22;5908;51.354;7.458;2023-04-28T08:28:02;19.00;98.60
11704;DHT22;5908;51.354;7.458;2023-04-28T08:30:30;19.60;97.20
11704;DHT22;5908;51.354;7.458;2023-04-28T08:32:59;20.00;95.80
11704;DHT22;5908;51.354;7.458;2023-04-28T08:35:26;20.10;94.50
11704;DHT22;5908;51.354;7.458;2023-04-28T08:37:53;19.90;94.50
11704;DHT22;5908;51.354;7.458;2023-04-28T08:40:20;19.80;94.30
11704;DHT22;5908;51.354;7.458;2023-04-28T08:42:48;19.80;94.10
11704;DHT22;5908;51.354;7.458;2023-04-28T08:45:16;19.80;93.50
11704;DHT22;5908;51.354;7.458;2023-04-28T08:47:43;20.00;93.50
11704;DHT22;5908;51.354;7.458;2023-04-28T08:50:13;20.00;93.10
11704;DHT22;5908;51.354;7.458;2023-04-28T08:52:41;19.90;92.90
11704;DHT22;5908;51.354;7.458;2023-04-28T08:55:10;19.80;93.10
11704;DHT22;5908;51.354;7.458;2023-04-28T08:57:38;19.60;93.20
11704;DHT22;5908;51.354;7.458;2023-04-28T09:00:06;19.50;93.10
11704;DHT22;5908;51.354;7.458;2023-04-28T09:02:33;19.20;93.90
11704;DHT22;5908;51.354;7.458;2023-04-28T09:05:02;18.90;94.20
11704;DHT22;5908;51.354;7.458;2023-04-28T09:07:30;18.70;94.50
11704;DHT22;5908;51.354;7.458;2023-04-28T09:10:15;18.40;95.30
11704;DHT22;5908;51.354;7.458;2023-04-28T09:12:43;18.30;95.80
11704;DHT22;5908;51.354;7.458;2023-04-28T09:15:10;18.30;96.00
11704;DHT22;5908;51.354;7.458;2023-04-28T09:17:46;18.50;95.90
11704;DHT22;5908;51.354;7.458;2023-04-28T09:20:19;18.40;96.00
11704;DHT22;5908;51.354;7.458;2023-04-28T09:22:49;18.70;95.70
11704;DHT22;5908;51.354;7.458;2023-04-28T09:25:16;19.00;94.90
11704;DHT22;5908;51.354;7.458;2023-04-28T09:27:43;19.30;94.30
11704;DHT22;5908;51.354;7.458;2023-04-28T09:30:10;19.60;93.90
11704;DHT22;5908;51.354;7.458;2023-04-28T09:32:38;20.20;93.40
11704;DHT22;5908;51.354;7.458;2023-04-28T09:35:05;20.80;92.00
11704;DHT22;5908;51.354;7.458;2023-04-28T09:37:33;21.10;91.30
11704;DHT22;5908;51.354;7.458;2023-04-28T09:40:05;21.00;91.30
11704;DHT22;5908;51.354;7.458;2023-04-28T09:42:34;21.40;91.10
11704;DHT22;5908;51.354;7.458;2023-04-28T09:45:02;21.80;90.30
11704;DHT22;5908;51.354;7.458;2023-04-28T09:47:30;22.00;89.30
11704;DHT22;5908;51.354;7.458;2023-04-28T09:50:01;21.70;90.00
11704;DHT22;5908;51.354;7.458;2023-04-28T09:52:28;21.60;90.10
11704;DHT22;5908;51.354;7.458;2023-04-28T09:54:56;21.60;90.30
11704;DHT22;5908;51.354;7.458;2023-04-28T09:57:24;21.70;89.50
11704;DHT22;5908;51.354;7.458;2023-04-28T09:59:52;21.30;90.20
11704;DHT22;5908;51.354;7.458;2023-04-28T10:02:20;20.90;90.90
11704;DHT22;5908;51.354;7.458;2023-04-28T10:04:48;20.40;91.90
11704;DHT22;5908;51.354;7.458;2023-04-28T10:07:19;20.10;93.10
11704;DHT22;5908;51.354;7.458;2023-04-28T10:09:47;19.80;93.70
11704;DHT22;5908;51.354;7.458;2023-04-28T10:12:15;19.50;94.30
11704;DHT22;5908;51.354;7.458;2023-04-28T10:14:44;19.10;96.90
11704;DHT22;5908;51.354;7.458;2023-04-28T10:17:13;18.70;98.80
11704;DHT22;5908;51.354;7.458;2023-04-28T10:19:40;18.50;99.90
11704;DHT22;5908;51.354;7.458;2023-04-28T10:22:23;18.30;99.90
11704;DHT22;5908;51.354;7.458;2023-04-28T10:25:07;18.40;99.90
11704;DHT22;5908;51.354;7.458;2023-04-28T10:27:40;18.80;99.90
11704;DHT22;5908;51.354;7.458;2023-04-28T10:30:13;19.20;99.90
11704;DHT22;5908;51.354;7.458;2023-04-28T10:32:41;19.60;98.80
11704;DHT22;5908;51.354;7.458;2023-04-28T10:35:42;20.10;97.20
11704;DHT22;5908;51.354;7.458;2023-04-28T10:38:11;20.70;95.80
11704;DHT22;5908;51.354;7.458;2023-04-28T10:40:39;21.10;94.90
11704;DHT22;5908;51.354;7.458;2023-04-28T10:43:07;21.60;93.80
11704;DHT22;5908;51.354;7.458;2023-04-28T10:46:04;21.80;92.90
11704;DHT22;5908;51.354;7.458;2023-04-28T10:48:55;21.70;92.30
11704;DHT22;5908;51.354;7.458;2023-04-28T10:51:23;21.20;92.80
11704;DHT22;5908;51.354;7.458;2023-04-28T10:54:16;21.10;93.30
11704;DHT22;5908;51.354;7.458;2023-04-28T10:57:15;21.00;93.30
11704;DHT22;5908;51.354;7.458;2023-04-28T10:59:43;20.80;93.70
11704;DHT22;5908;51.354;7.458;2023-04-28T11:02:36;20.60;94.30
11704;DHT22;5908;51.354;7.458;2023-04-28T11:05:13;20.20;95.10
11704;DHT22;5908;51.354;7.458;2023-04-28T11:07:40;19.90;96.00
11704;DHT22;5908;51.354;7.458;2023-04-28T11:13:33;20.40;95.90
11704;DHT22;5908;51.354;7.458;2023-04-28T11:16:03;20.80;95.20
11704;DHT22;5908;51.354;7.458;2023-04-28T11:18:43;20.80;95.00
11704;DHT22;5908;51.354;7.458;2023-04-28T11:21:14;20.60;95.30
11704;DHT22;5908;51.354;7.458;2023-04-28T11:23:41;20.20;96.10
11704;DHT22;5908;51.354;7.458;2023-04-28T11:26:08;19.80;96.60
11704;DHT22;5908;51.354;7.458;2023-04-28T11:28:35;19.60;96.90
11704;DHT22;5908;51.354;7.458;2023-04-28T11:31:11;19.50;97.50
11704;DHT22;5908;51.354;7.458;2023-04-28T11:33:41;19.50;97.50
11704;DHT22;5908;51.354;7.458;2023-04-28T11:36:24;19.50;97.30
11704;DHT22;5908;51.354;7.458;2023-04-28T11:38:52;19.60;97.30
11704;DHT22;5908;51.354;7.458;2023-04-28T11:41:19;19.70;97.10
11704;DHT22;5908;51.354;7.458;2023-04-28T11:43:46;20.40;97.30
11704;DHT22;5908;51.354;7.458;2023-04-28T11:46:16;21.20;94.90
11704;DHT22;5908;51.354;7.458;2023-04-28T11:48:44;21.70;93.80
11704;DHT22;5908;51.354;7.458;2023-04-28T11:51:28;21.80;93.40
11704;DHT22;5908;51.354;7.458;2023-04-28T11:53:54;22.00;92.90
11704;DHT22;5908;51.354;7.458;2023-04-28T11:56:21;21.90;92.90
11704;DHT22;5908;51.354;7.458;2023-04-28T11:58:59;21.90;92.80
11704;DHT22;5908;51.354;7.458;2023-04-28T12:01:26;21.60;93.40
11704;DHT22;5908;51.354;7.458;2023-04-28T12:03:54;21.50;93.00
11704;DHT22;5908;51.354;7.458;2023-04-28T12:06:21;21.40;93.30
11704;DHT22;5908;51.354;7.458;2023-04-28T12:08:48;21.60;93.20
11704;DHT22;5908;51.354;7.458;2023-04-28T12:11:15;21.30;93.60
11704;DHT22;5908;51.354;7.458;2023-04-28T12:13:42;20.70;94.20
11704;DHT22;5908;51.354;7.458;2023-04-28T12:16:10;20.50;94.80
11704;DHT22;5908;51.354;7.458;2023-04-28T12:18:37;20.60;95.10
11704;DHT22;5908;51.354;7.458;2023-04-28T12:21:19;20.60;95.20
11704;DHT22;5908;51.354;7.458;2023-04-28T12:23:46;20.80;95.20
11704;DHT22;5908;51.354;7.458;2023-04-28T12:26:13;20.80;95.40
11704;DHT22;5908;51.354;7.458;2023-04-28T12:28:40;21.30;94.70
11704;DHT22;5908;51.354;7.458;2023-04-28T12:31:07;21.50;94.40
11704;DHT22;5908;51.354;7.458;2023-04-28T12:33:34;21.50;94.20
11704;DHT22;5908;51.354;7.458;2023-04-28T12:36:05;21.40;94.30
11704;DHT22;5908;51.354;7.458;2023-04-28T12:38:32;21.20;94.80
11704;DHT22;5908;51.354;7.458;2023-04-28T12:40:58;21.10;95.00
11704;DHT22;5908;51.354;7.458;2023-04-28T12:43:26;21.30;94.90
11704;DHT22;5908;51.354;7.458;2023-04-28T12:45:54;21.50;94.60
11704;DHT22;5908;51.354;7.458;2023-04-28T12:48:21;21.50;94.20
11704;DHT22;5908;51.354;7.458;2023-04-28T12:50:49;21.70;94.40
11704;DHT22;5908;51.354;7.458;2023-04-28T12:53:17;21.90;93.90
11704;DHT22;5908;51.354;7.458;2023-04-28T12:55:44;21.90;93.20
11704;DHT22;5908;51.354;7.458;2023-04-28T12:58:11;21.80;93.70
11704;DHT22;5908;51.354;7.458;2023-04-28T13:00:38;21.90;93.60
11704;DHT22;5908;51.354;7.458;2023-04-28T13:03:06;22.10;93.10
11704;DHT22;5908;51.354;7.458;2023-04-28T13:05:32;22.20;92.90
11704;DHT22;5908;51.354;7.458;2023-04-28T13:07:59;22.40;92.60
11704;DHT22;5908;51.354;7.458;2023-04-28T13:10:28;22.80;92.10
11704;DHT22;5908;51.354;7.458;2023-04-28T13:12:54;23.10;91.70
11704;DHT22;5908;51.354;7.458;2023-04-28T13:15:21;23.20;90.90
11704;DHT22;5908;51.354;7.458;2023-04-28T13:17:48;23.00;91.10
11704;DHT22;5908;51.354;7.458;2023-04-28T13:20:14;23.00;91.30
11704;DHT22;5908;51.354;7.458;2023-04-28T13:22:41;23.30;90.70
11704;DHT22;5908;51.354;7.458;2023-04-28T13:25:08;23.30;90.50
11704;DHT22;5908;51.354;7.458;2023-04-28T13:27:37;23.60;90.00
11704;DHT22;5908;51.354;7.458;2023-04-28T13:30:04;23.50;90.10
11704;DHT22;5908;51.354;7.458;2023-04-28T13:32:33;23.50;89.90
11704;DHT22;5908;51.354;7.458;2023-04-28T13:35:00;23.40;89.20
11704;DHT22;5908;51.354;7.458;2023-04-28T13:37:26;23.30;90.00
11704;DHT22;5908;51.354;7.458;2023-04-28T13:39:53;22.90;90.10
11704;DHT22;5908;51.354;7.458;2023-04-28T13:42:20;22.50;90.60
11704;DHT22;5908;51.354;7.458;2023-04-28T13:44:48;22.20;91.20
11704;DHT22;5908;51.354;7.458;2023-04-28T13:47:15;22.00;91.80
11704;DHT22;5908;51.354;7.458;2023-04-28T13:49:42;22.20;91.40
11704;DHT22;5908;51.354;7.458;2023-04-28T13:52:09;22.40;91.00
11704;DHT22;5908;51.354;7.458;2023-04-28T13:54:35;22.70;90.60
11704;DHT22;5908;51.354;7.458;2023-04-28T13:57:02;22.90;90.00
11704;DHT22;5908;51.354;7.458;2023-04-28T13:59:29;23.00;89.60
11704;DHT22;5908;51.354;7.458;2023-04-28T14:01:57;23.20;89.40
11704;DHT22;5908;51.354;7.458;2023-04-28T14:04:24;23.60;87.30
11704;DHT22;5908;51.354;7.458;2023-04-28T14:06:51;23.10;88.60
11704;DHT22;5908;51.354;7.458;2023-04-28T14:09:18;22.90;89.50
11704;DHT22;5908;51.354;7.458;2023-04-28T14:11:45;22.70;90.00
11704;DHT22;5908;51.354;7.458;2023-04-28T14:14:11;22.50;90.20
11704;DHT22;5908;51.354;7.458;2023-04-28T14:16:38;22.80;90.20
11704;DHT22;5908;51.354;7.458;2023-04-28T14:19:07;23.10;89.30
11704;DHT22;5908;51.354;7.458;2023-04-28T14:21:34;23.30;88.00
11704;DHT22;5908;51.354;7.458;2023-04-28T14:24:00;23.50;88.10
11704;DHT22;5908;51.354;7.458;2023-04-28T14:26:27;23.40;88.00
11704;DHT22;5908;51.354;7.458;2023-04-28T14:28:54;23.30;87.10
11704;DHT22;5908;51.354;7.458;2023-04-28T14:31:21;23.20;87.70
11704;DHT22;5908;51.354;7.458;2023-04-28T14:33:47;23.20;87.70
11704;DHT22;5908;51.354;7.458;2023-04-28T14:36:15;23.00;88.20
11704;DHT22;5908;51.354;7.458;2023-04-28T14:38:42;22.80;88.50
11704;DHT22;5908;51.354;7.458;2023-04-28T14:41:09;23.00;88.00
11704;DHT22;5908;51.354;7.458;2023-04-28T14:43:36;23.00;88.80
11704;DHT22;5908;51.354;7.458;2023-04-28T14:46:03;22.90;88.80
11704;DHT22;5908;51.354;7.458;2023-04-28T14:48:30;23.10;88.40
11704;DHT22;5908;51.354;7.458;2023-04-28T14:50:57;23.30;87.70
11704;DHT22;5908;51.354;7.458;2023-04-28T14:53:25;23.30;87.40
11704;DHT22;5908;51.354;7.458;2023-04-28T14:55:52;23.10;87.50
11704;DHT22;5908;51.354;7.458;2023-04-28T14:58:19;22.80;87.90
11704;DHT22;5908;51.354;7.458;2023-04-28T15:00:46;22.90;88.70
11704;DHT22;5908;51.354;7.458;2023-04-28T15:03:13;23.10;88.20
11704;DHT22;5908;51.354;7.458;2023-04-28T15:05:39;23.30;87.80
11704;DHT22;5908;51.354;7.458;2023-04-28T15:08:06;23.40;86.90
11704;DHT22;5908;51.354;7.458;2023-04-28T15:10:37;23.30;87.10
11704;DHT22;5908;51.354;7.458;2023-04-28T15:13:05;23.30;87.00
11704;DHT22;5908;51.354;7.458;2023-04-28T15:15:32;22.90;86.80
11704;DHT22;5908;51.354;7.458;2023-04-28T15:17:58;22.30;88.40
11704;DHT22;5908;51.354;7.458;2023-04-28T15:20:26;21.90;90.00
11704;DHT22;5908;51.354;7.458;2023-04-28T15:22:53;22.20;90.20
11704;DHT22;5908;51.354;7.458;2023-04-28T15:25:20;22.70;89.10
11704;DHT22;5908;51.354;7.458;2023-04-28T15:27:48;23.00;88.00
11704;DHT22;5908;51.354;7.458;2023-04-28T15:30:15;23.10;87.00
11704;DHT22;5908;51.354;7.458;2023-04-28T15:32:42;22.70;87.90
11704;DHT22;5908;51.354;7.458;2023-04-28T15:35:09;22.60;87.60
11704;DHT22;5908;51.354;7.458;2023-04-28T15:37:41;22.30;89.00
11704;DHT22;5908;51.354;7.458;2023-04-28T15:40:10;22.00;90.10
11704;DHT22;5908;51.354;7.458;2023-04-28T15:42:38;22.00;90.30
11704;DHT22;5908;51.354;7.458;2023-04-28T15:45:08;22.10;90.10
11704;DHT22;5908;51.354;7.458;2023-04-28T15:47:36;22.00;90.20
11704;DHT22;5908;51.354;7.458;2023-04-28T15:50:04;21.60;90.60
11704;DHT22;5908;51.354;7.458;2023-04-28T15:52:31;21.40;91.10
11704;DHT22;5908;51.354;7.458;2023-04-28T15:54:57;21.30;90.90